»·PEaware :: SWA21 KPDX-KBOI

SWA21 :: KPDX-KBOI

FLIGHT INFORMATION

Flight Status: Arrived
Operator:
Southwest Airlines
More flights by this operator :: More flights under this callsign
Pilot: Ben F. (13029)
Aircraft: BOEING 737-200
(B732)
More flights by this aircraft type
Origin: KPDX Portland Intl
United States
Destination: KBOI Boise Air Terminal/Gowen
United States
More flights between these airports :: More routes between these airports
Route: IMB REO BOI
File this flight plan on PilotEdge
Remarks: PBN / A1B2 DOF / 180819 REG / N275SB EET / KZLC0028 RMK / TCAS SIMBRIEF
Altitude:
(Current/Filed)
29,000ft
Speed:
(Current/Filed)
447kts
Departed: 18-Aug-18 05:14 PM
Arrived: 18-Aug-18 06:17 PM
Distance/Time
Traveled:
298nm/1:03
Distance/Time
To Go:
Arrived

Flight Plot

Page will automatically refresh every two minutes.

Flight plan parsing failed; only flown route is shown


Map Options




Map Legend


Flown Route
Filed Route
Departure Airport
Arrival Airport
Navaid (VOR, NDB)
Fix

Horizontal Profiles

Position Reports

Time Latitude Longitude Heading Altitude Ground
Speed
18-Aug-18 16:48 45.589836 -122.597348 208 38ft 0kts
18-Aug-18 16:49 45.589836 -122.597348 208 38ft 0kts
18-Aug-18 16:50 45.589836 -122.597348 208 38ft 0kts
18-Aug-18 16:51 45.589836 -122.597348 208 38ft 0kts
18-Aug-18 16:52 45.589836 -122.597348 208 38ft 0kts
18-Aug-18 16:53 45.589836 -122.597348 208 38ft 0kts
18-Aug-18 16:54 45.589836 -122.597348 208 38ft 0kts
18-Aug-18 16:55 45.589836 -122.597348 208 38ft 0kts
18-Aug-18 16:56 45.589836 -122.597348 208 38ft 0kts
18-Aug-18 16:57 45.589836 -122.597348 208 38ft 0kts
18-Aug-18 16:58 45.589836 -122.597348 208 38ft 0kts
18-Aug-18 16:59 45.589836 -122.597348 208 38ft 0kts
18-Aug-18 17:00 45.590006 -122.597213 208 38ft 2kts
18-Aug-18 17:01 45.590394 -122.596768 288 38ft 1kts
18-Aug-18 17:02 45.590346 -122.596656 298 38ft 0kts
18-Aug-18 17:03 45.590346 -122.596656 298 38ft 0kts
18-Aug-18 17:04 45.590346 -122.596656 298 38ft 0kts
18-Aug-18 17:05 45.590346 -122.596656 298 38ft 0kts
18-Aug-18 17:06 45.590545 -122.597180 298 38ft 11kts
18-Aug-18 17:07 45.590915 -122.598145 299 38ft 0kts
18-Aug-18 17:08 45.592361 -122.596329 29 38ft 11kts
18-Aug-18 17:09 45.591305 -122.592014 118 38ft 16kts
18-Aug-18 17:10 45.589597 -122.585989 86 38ft 15kts
18-Aug-18 17:11 45.587569 -122.580282 118 38ft 17kts
18-Aug-18 17:12 45.585104 -122.573970 119 38ft 20kts
18-Aug-18 17:13 45.582731 -122.567474 74 38ft 6kts
18-Aug-18 17:14 45.583809 -122.567447 303 38ft 0kts
18-Aug-18 17:15 45.589070 -122.580936 299 39ft 154kts
18-Aug-18 17:16 45.617109 -122.657316 297 2886ft 261kts
18-Aug-18 17:17 45.643627 -122.753049 259 7484ft 277kts
18-Aug-18 17:18 45.582842 -122.796947 155 11470ft 295kts
18-Aug-18 17:19 45.540630 -122.695863 113 14904ft 317kts
18-Aug-18 17:20 45.507670 -122.576948 114 17807ft 333kts
18-Aug-18 17:21 45.472844 -122.453641 115 20216ft 349kts
18-Aug-18 17:22 45.435472 -122.323313 116 22374ft 364kts
18-Aug-18 17:23 45.395514 -122.184961 116 24163ft 381kts
18-Aug-18 17:24 45.355125 -122.044233 116 25933ft 392kts
18-Aug-18 17:25 45.312931 -121.898578 116 27438ft 405kts
18-Aug-18 17:26 45.269205 -121.748699 116 28750ft 417kts
18-Aug-18 17:27 45.223019 -121.591281 116 28966ft 452kts
18-Aug-18 17:28 45.173989 -121.424079 115 28958ft 462kts
18-Aug-18 17:29 45.123888 -121.256327 116 28951ft 464kts
18-Aug-18 17:30 45.073555 -121.088535 116 28951ft 465kts
18-Aug-18 17:31 45.022782 -120.919652 114 28955ft 467kts
18-Aug-18 17:32 44.971812 -120.750868 115 28956ft 469kts
18-Aug-18 17:33 44.920410 -120.582082 115 28979ft 470kts
18-Aug-18 17:34 44.867483 -120.413483 116 29016ft 471kts
18-Aug-18 17:35 44.815260 -120.244810 116 29045ft 471kts
18-Aug-18 17:36 44.762665 -120.076173 115 29074ft 471kts
18-Aug-18 17:37 44.710119 -119.908097 115 29083ft 472kts
18-Aug-18 17:38 44.640578 -119.757960 153 29087ft 454kts
18-Aug-18 17:39 44.526697 -119.689126 145 29080ft 458kts
18-Aug-18 17:40 44.449204 -119.547041 147 29102ft 456kts
18-Aug-18 17:41 44.351219 -119.432506 144 28679ft 468kts
18-Aug-18 17:42 44.239427 -119.344844 142 28142ft 479kts
18-Aug-18 17:43 44.140468 -119.228348 148 29037ft 441kts
18-Aug-18 17:44 44.039431 -119.133045 151 29063ft 440kts
18-Aug-18 17:45 43.937019 -119.040454 151 29074ft 441kts
18-Aug-18 17:46 43.833847 -118.949162 151 29098ft 442kts
18-Aug-18 17:47 43.730441 -118.857534 150 29097ft 445kts
18-Aug-18 17:48 43.625427 -118.764514 150 29104ft 453kts
18-Aug-18 17:49 43.518891 -118.670678 150 29104ft 459kts
18-Aug-18 17:50 43.411019 -118.575589 150 29105ft 464kts
18-Aug-18 17:51 43.301906 -118.479972 150 29106ft 468kts
18-Aug-18 17:52 43.191740 -118.383975 150 29107ft 471kts
18-Aug-18 17:53 43.084406 -118.290564 150 29055ft 454kts
18-Aug-18 17:54 42.985255 -118.205036 151 27075ft 421kts
18-Aug-18 17:55 42.889241 -118.122566 151 25482ft 401kts
18-Aug-18 17:56 42.796619 -118.043895 151 24063ft 379kts
18-Aug-18 17:57 42.707538 -117.967875 150 24074ft 381kts
18-Aug-18 17:58 42.624909 -117.879530 116 24095ft 388kts
18-Aug-18 17:59 42.643295 -117.747764 44 24096ft 368kts
18-Aug-18 18:00 42.711276 -117.643931 49 24072ft 374kts
18-Aug-18 18:01 42.770370 -117.526930 46 24078ft 375kts
18-Aug-18 18:02 42.833744 -117.413047 45 24064ft 378kts
18-Aug-18 18:03 42.903638 -117.311094 45 22792ft 370kts
18-Aug-18 18:04 42.968013 -117.204767 47 21104ft 358kts
18-Aug-18 18:05 43.029496 -117.100567 47 19457ft 347kts
18-Aug-18 18:06 43.088635 -116.999488 47 17912ft 335kts
18-Aug-18 18:07 43.145665 -116.902503 48 16402ft 323kts
18-Aug-18 18:08 43.200662 -116.808105 48 14766ft 315kts
18-Aug-18 18:09 43.254710 -116.714717 49 13134ft 308kts
18-Aug-18 18:10 43.307200 -116.623599 49 11544ft 301kts
18-Aug-18 18:11 43.358425 -116.534297 50 9996ft 295kts
18-Aug-18 18:12 43.408487 -116.446657 50 8489ft 290kts
18-Aug-18 18:13 43.454082 -116.357050 66 6994ft 286kts
18-Aug-18 18:14 43.471773 -116.253334 74 6003ft 265kts
18-Aug-18 18:15 43.493164 -116.160359 46 4468ft 232kts
18-Aug-18 18:16 43.542045 -116.167289 316 3383ft 195kts
18-Aug-18 18:17 43.562268 -116.213665 295 2861ft 86kts
18-Aug-18 18:18 43.564509 -116.217220 353 2857ft 9kts
18-Aug-18 18:19 43.566522 -116.220854 354 2853ft 8kts
18-Aug-18 18:20 43.567206 -116.220576 26 2852ft 0kts
18-Aug-18 18:21 43.567206 -116.220576 26 2852ft 0kts
18-Aug-18 18:33 43.567206 -116.220576 26 2852ft 0kts

Navigation Log

Ident Type
Flight plan parsing failed, navigation log unavailable